createdAt,value
2016-02-28T12:31:17.628Z,21.77
2016-02-28T12:32:17.583Z,22
2016-02-28T12:33:17.571Z,22.23
2016-02-28T12:34:17.541Z,22.54
2016-02-28T12:35:17.544Z,22.59
2016-02-28T12:36:17.547Z,22.76
2016-02-28T12:37:17.535Z,22.88
2016-02-28T12:38:17.537Z,22.96
2016-02-28T12:39:17.540Z,23.15
2016-02-28T12:40:17.527Z,23.38
2016-02-28T12:41:17.529Z,23.47
2016-02-28T12:42:17.579Z,23.57
2016-02-28T12:43:17.535Z,23.63
2016-02-28T12:44:17.537Z,23.74
2016-02-28T12:45:17.524Z,23.72
2016-02-28T12:46:17.526Z,23.85
2016-02-28T12:47:17.529Z,23.92
2016-02-28T12:48:17.517Z,23.74
2016-02-28T12:49:17.535Z,23.74
2016-02-28T12:50:17.523Z,23.82
2016-02-28T12:51:17.525Z,23.97
2016-02-28T12:52:17.528Z,24
2016-02-28T12:53:17.515Z,23.99
2016-02-28T12:54:17.534Z,23.93
2016-02-28T12:55:17.520Z,24.04
2016-02-28T12:56:17.522Z,23.85
2016-02-28T12:57:17.510Z,23.72
2016-02-28T12:58:17.528Z,23.89
2016-02-28T12:59:17.516Z,23.74
2016-02-28T13:00:17.519Z,23.84
2016-02-28T13:01:17.521Z,23.93
2016-02-28T13:02:17.524Z,24.09
2016-02-28T13:03:17.526Z,24.26
2016-02-28T13:04:17.529Z,24.07
2016-02-28T13:05:17.532Z,23.81
2016-02-28T13:06:17.522Z,23.57
2016-02-28T13:07:17.524Z,23.66
2016-02-28T13:08:17.516Z,23.48
2016-02-28T13:09:17.518Z,23.32
2016-02-28T13:10:17.521Z,23.5
2016-02-28T13:11:17.524Z,23.45
2016-02-28T13:12:17.543Z,23.41
2016-02-28T13:13:17.545Z,23.16
2016-02-28T13:14:17.516Z,23.01
2016-02-28T13:15:17.503Z,22.96
2016-02-28T13:16:17.506Z,22.66
2016-02-28T13:17:17.510Z,22.51
2016-02-28T13:18:17.481Z,22.38
2016-02-28T13:19:17.483Z,22.29
2016-02-28T13:20:17.486Z,22.18
2016-02-28T13:21:17.472Z,21.83
2016-02-28T13:22:17.460Z,21.67
2016-02-28T13:23:17.463Z,21.56
2016-02-28T13:24:17.465Z,21.51
2016-02-28T13:25:17.453Z,21.28
2016-02-28T13:26:17.455Z,21.22
2016-02-28T13:27:17.427Z,21.16
2016-02-28T13:28:17.429Z,20.96
2016-02-28T13:29:17.416Z,20.86
2016-02-28T13:30:17.403Z,20.76
2016-02-28T13:31:17.405Z,20.72
2016-02-28T13:32:17.393Z,20.74
2016-02-28T13:33:17.380Z,20.57
2016-02-28T13:34:17.383Z,20.76
2016-02-28T13:35:17.386Z,20.64
2016-02-28T13:36:17.388Z,20.72
2016-02-28T13:37:17.391Z,20.93
2016-02-28T13:38:17.363Z,20.81
2016-02-28T13:39:17.350Z,20.54
2016-02-28T13:40:17.352Z,20.57
2016-02-28T13:41:17.324Z,20.64
2016-02-28T13:42:17.373Z,20.56
2016-02-28T13:43:17.298Z,20.48
2016-02-28T13:44:17.301Z,20.56
2016-02-28T13:45:17.304Z,20.78
2016-02-28T13:46:17.290Z,20.66
2016-02-28T13:47:17.324Z,20.66
2016-02-28T13:48:17.264Z,20.72
2016-02-28T13:49:17.267Z,20.74
2016-02-28T13:50:17.254Z,20.76
2016-02-28T13:51:17.257Z,21.03
2016-02-28T13:52:17.260Z,21.08
2016-02-28T13:53:17.231Z,21.15
2016-02-28T13:54:17.234Z,21.25
2016-02-28T13:55:17.220Z,21.21
2016-02-28T13:56:17.223Z,21.46
2016-02-28T13:57:17.211Z,21.41
2016-02-28T13:58:17.198Z,21.92
2016-02-28T13:59:17.200Z,21.45
2016-02-28T14:00:17.187Z,21.56
2016-02-28T14:01:17.189Z,21.43
2016-02-28T14:02:17.177Z,21.21
2016-02-28T14:03:17.164Z,21
2016-02-28T14:04:17.151Z,20.68
2016-02-28T14:05:17.153Z,20.67
2016-02-28T14:06:17.156Z,20.51
2016-02-28T14:07:17.143Z,20.29
2016-02-28T14:08:17.147Z,20.57
2016-02-28T14:09:17.133Z,20.81
2016-02-28T14:10:17.136Z,20.82
2016-02-28T14:11:17.091Z,21.01
2016-02-28T14:12:17.110Z,21
2016-02-28T14:13:17.113Z,20.75
2016-02-28T14:14:17.099Z,20.72
2016-02-28T14:15:17.102Z,20.91
2016-02-28T14:16:17.074Z,20.91
2016-02-28T14:17:17.076Z,20.81
2016-02-28T14:18:17.064Z,20.76
2016-02-28T14:19:17.066Z,20.85
2016-02-28T14:20:17.069Z,20.97
2016-02-28T14:21:17.040Z,21.13
2016-02-28T14:22:17.043Z,20.97
2016-02-28T14:23:17.046Z,20.79
2016-02-28T14:24:17.096Z,20.88
2016-02-28T14:25:17.021Z,21.08
2016-02-28T14:26:17.007Z,21.22
2016-02-28T14:27:17.025Z,21.48
2016-02-28T14:28:16.981Z,21.15
2016-02-28T14:29:16.984Z,21.15
2016-02-28T14:30:17.189Z,21.15
2016-02-28T14:31:16.973Z,21.23
2016-02-28T14:32:17.508Z,21.52
2016-02-28T14:33:16.978Z,21.66
2016-02-28T14:34:16.950Z,21.68
2016-02-28T14:35:17.016Z,21.68
2016-02-28T14:36:16.956Z,21.58
2016-02-28T14:37:16.943Z,21.78
2016-02-28T14:38:16.930Z,21.94
2016-02-28T14:39:16.932Z,21.73
2016-02-28T14:40:16.919Z,21.96
2016-02-28T14:41:16.908Z,22.23
2016-02-28T14:42:16.910Z,22.12
2016-02-28T14:43:16.912Z,22
2016-02-28T14:44:16.883Z,21.93
2016-02-28T14:45:16.885Z,21.74
2016-02-28T14:46:16.889Z,21.73
2016-02-28T14:47:16.877Z,21.58
2016-02-28T14:48:16.894Z,21.38
2016-02-28T14:49:16.882Z,21.04
2016-02-28T14:50:16.868Z,20.91
2016-02-28T14:51:16.871Z,21.11
2016-02-28T14:52:16.843Z,21.12
2016-02-28T14:53:16.862Z,20.98
2016-02-28T14:54:16.832Z,21.08
2016-02-28T14:55:16.835Z,21.19
2016-02-28T14:56:16.822Z,21.23
2016-02-28T14:57:16.825Z,21.11
2016-02-28T14:58:16.828Z,21
2016-02-28T14:59:16.815Z,21.09
2016-02-28T15:00:16.801Z,20.94
2016-02-28T15:01:16.773Z,20.91
2016-02-28T15:02:16.822Z,21.11
2016-02-28T15:03:16.795Z,21.37
2016-02-28T15:04:16.812Z,21.53
2016-02-28T15:05:16.753Z,21.61
2016-02-28T15:06:16.755Z,21.66
2016-02-28T15:07:16.759Z,21.71
2016-02-28T15:08:16.744Z,21.62
2016-02-28T15:09:16.623Z,21.59
2016-02-28T15:10:16.750Z,21.56
2016-02-28T15:11:16.738Z,21.66
2016-02-28T15:12:16.724Z,21.56
2016-02-28T15:13:16.727Z,21.61
2016-02-28T15:14:16.761Z,21.51
2016-02-28T15:15:16.702Z,21.46
2016-02-28T15:16:16.719Z,21.4
2016-02-28T15:17:16.722Z,21.48
2016-02-28T15:18:16.709Z,21.33
2016-02-28T15:19:16.697Z,21.25
2016-02-28T15:20:16.684Z,21.23
2016-02-28T15:21:16.671Z,21.19
2016-02-28T15:22:16.673Z,21.13
2016-02-28T15:23:16.692Z,21.03
2016-02-28T15:24:16.710Z,21.09
2016-02-28T15:25:16.666Z,20.98
2016-02-28T15:26:16.700Z,20.82
2016-02-28T15:27:16.656Z,20.86
2016-02-28T15:28:16.658Z,20.9
2016-02-28T15:29:16.645Z,21.01
2016-02-28T15:30:16.632Z,20.74
2016-02-28T15:31:16.634Z,20.71
2016-02-28T15:32:16.637Z,20.6
2016-02-28T15:33:16.609Z,20.74
2016-02-28T15:34:16.612Z,20.67
2016-02-28T15:35:16.600Z,20.68
2016-02-28T15:36:16.617Z,20.76
2016-02-28T15:37:16.636Z,20.81
2016-02-28T15:38:16.592Z,20.82
2016-02-28T15:39:16.625Z,20.74
2016-02-28T15:40:16.566Z,20.82
2016-02-28T15:41:16.583Z,20.72
2016-02-28T15:42:16.555Z,20.75
2016-02-28T15:43:16.574Z,20.68
2016-02-28T15:44:16.561Z,20.66
2016-02-28T15:45:16.547Z,20.67
2016-02-28T15:46:16.535Z,20.86
2016-02-28T15:47:16.538Z,20.85
2016-02-28T15:48:16.524Z,20.76
2016-02-28T15:49:16.512Z,20.79
2016-02-28T15:50:16.514Z,20.64
2016-02-28T15:51:16.501Z,20.48
2016-02-28T15:52:16.505Z,20.48
2016-02-28T15:53:16.491Z,20.4
2016-02-28T15:54:16.509Z,20.49
2016-02-28T15:55:16.481Z,20.4
2016-02-28T15:56:16.468Z,20.42
2016-02-28T15:57:16.471Z,20.23
2016-02-28T15:58:16.473Z,20.46
2016-02-28T15:59:16.460Z,20.38
2016-02-28T16:00:16.463Z,20.23
2016-02-28T16:01:16.451Z,20.38
2016-02-28T16:02:16.453Z,20.34
2016-02-28T16:03:16.440Z,20.12
2016-02-28T16:04:16.428Z,20.08
2016-02-28T16:05:16.414Z,20.16
2016-02-28T16:06:16.432Z,20.23
2016-02-28T16:07:16.420Z,20.2
2016-02-28T16:08:16.406Z,20.26
2016-02-28T16:09:16.394Z,20.38
2016-02-28T16:10:16.397Z,20.34
2016-02-28T16:11:16.399Z,20.25
2016-02-28T16:12:16.386Z,20.18
2016-02-28T16:13:16.389Z,20.38
2016-02-28T16:14:16.845Z,20.42
2016-02-28T16:15:16.363Z,20.46
2016-02-28T16:16:16.366Z,20.35
2016-02-28T16:17:16.368Z,20.22
2016-02-28T16:18:16.355Z,20.08
2016-02-28T16:19:16.343Z,20.2
2016-02-28T16:20:16.330Z,20.1
2016-02-28T16:21:16.332Z,20.11
2016-02-28T16:22:16.335Z,20.02
2016-02-28T16:23:16.337Z,20.07
2016-02-28T16:24:16.324Z,20.04
2016-02-28T16:25:16.312Z,20.07
2016-02-28T16:26:16.346Z,19.97
2016-02-28T16:27:16.301Z,19.97
2016-02-28T16:28:16.273Z,20.04
2016-02-28T16:29:16.275Z,19.93
2016-02-28T16:30:16.278Z,20.07
2016-02-28T16:31:16.265Z,20.11
2016-02-28T16:32:16.268Z,19.92
2016-02-28T16:33:16.270Z,19.97
2016-02-28T16:34:16.273Z,19.75
2016-02-28T16:35:16.245Z,19.53
2016-02-28T16:36:16.231Z,19.45
2016-02-28T16:37:16.219Z,19.19
2016-02-28T16:38:16.269Z,19.07
2016-02-28T16:39:16.208Z,18.99
2016-02-28T16:40:16.321Z,18.81
2016-02-28T16:41:16.230Z,18.76
2016-02-28T16:42:16.185Z,18.6
2016-02-28T16:43:16.188Z,18.5
2016-02-28T16:44:16.175Z,18.47
2016-02-28T16:45:16.163Z,18.42
2016-02-28T16:46:16.150Z,18.36
2016-02-28T16:47:16.136Z,18.35
2016-02-28T16:48:16.123Z,18.27
2016-02-28T16:49:16.110Z,18.23
2016-02-28T16:50:16.098Z,18.11
2016-02-28T16:51:16.100Z,18.13
2016-02-28T16:52:16.072Z,18.08
2016-02-28T16:53:16.075Z,18.03
2016-02-28T16:54:16.045Z,18.03
2016-02-28T16:55:16.042Z,17.98
2016-02-28T16:56:16.020Z,17.96
2016-02-28T16:57:15.983Z,17.95
2016-02-28T16:58:15.993Z,17.87
2016-02-28T16:59:15.971Z,17.83
2016-02-28T17:00:15.940Z,17.88
2016-02-28T17:01:15.939Z,17.96
2016-02-28T17:02:15.923Z,17.98
2016-02-28T17:03:15.891Z,17.98
2016-02-28T17:04:15.937Z,17.99
2016-02-28T17:05:15.721Z,18.06
2016-02-28T17:06:15.868Z,18.01
2016-02-28T17:07:15.837Z,17.98
2016-02-28T17:08:15.839Z,17.96
2016-02-28T17:09:15.841Z,18.02
2016-02-28T17:10:15.813Z,18.05
2016-02-28T17:11:15.815Z,17.98
2016-02-28T17:12:15.786Z,17.94
2016-02-28T17:13:15.835Z,17.86
2016-02-28T17:14:15.790Z,18.01
2016-02-28T17:15:15.792Z,17.99
2016-02-28T17:16:15.732Z,17.98
2016-02-28T17:17:15.750Z,17.96
2016-02-28T17:18:15.769Z,17.95
2016-02-28T17:19:15.739Z,17.99
2016-02-28T17:20:15.695Z,17.98
2016-02-28T17:21:15.699Z,17.87
2016-02-28T17:22:15.685Z,17.9
2016-02-28T17:23:15.672Z,17.99
2016-02-28T17:24:15.674Z,17.95
2016-02-28T17:25:15.662Z,17.9
2016-02-28T17:26:15.633Z,17.94
2016-02-28T17:27:15.621Z,18.01
2016-02-28T17:28:15.670Z,17.95
2016-02-28T17:29:15.610Z,17.98
2016-02-28T17:30:15.456Z,17.94
2016-02-28T17:31:15.584Z,17.92
2016-02-28T17:32:15.618Z,17.86
2016-02-28T17:33:15.418Z,17.79
2016-02-28T17:34:15.592Z,17.81
2016-02-28T17:35:15.548Z,17.81
2016-02-28T17:36:15.534Z,17.74
2016-02-28T17:37:15.537Z,17.81
2016-02-28T17:38:15.525Z,17.68
2016-02-28T17:39:15.512Z,17.68
2016-02-28T17:40:15.499Z,17.73
2016-02-28T17:41:15.564Z,17.68
2016-02-28T17:42:15.472Z,17.68
2016-02-28T17:43:15.460Z,17.77
2016-02-28T17:44:15.463Z,17.8
2016-02-28T17:45:15.433Z,17.69
2016-02-28T17:46:15.421Z,17.77
2016-02-28T17:47:15.424Z,17.86
2016-02-28T17:48:15.458Z,17.76
2016-02-28T17:49:15.399Z,17.79
2016-02-28T17:50:15.401Z,17.65
2016-02-28T17:51:15.372Z,17.68
2016-02-28T17:52:15.360Z,17.77
2016-02-28T17:53:15.347Z,17.79
2016-02-28T17:54:15.537Z,17.77
2016-02-28T17:55:15.335Z,17.77
2016-02-28T17:56:15.323Z,17.8
2016-02-28T17:57:15.310Z,17.81
2016-02-28T17:58:15.329Z,17.8
2016-02-28T17:59:15.316Z,17.86
2016-02-28T18:00:15.287Z,17.8
2016-02-28T18:01:15.290Z,17.81
2016-02-28T18:02:15.261Z,17.71
2016-02-28T18:20:01.607Z,17.6
2016-02-28T18:21:01.593Z,17.71
2016-02-28T18:22:01.550Z,17.63
2016-02-28T18:23:01.521Z,17.62
2016-02-28T18:24:01.524Z,17.57
2016-02-28T18:25:01.510Z,17.57
2016-02-28T18:26:01.498Z,17.54
2016-02-28T18:27:01.484Z,17.57
2016-02-28T18:28:01.456Z,17.65
2016-02-28T18:29:01.460Z,17.62
2016-02-28T18:30:01.462Z,17.5
2016-02-28T18:31:01.418Z,17.63
2016-02-28T18:32:01.421Z,17.57
2016-02-28T18:33:01.391Z,17.62
2016-02-28T18:34:01.379Z,17.54
2016-02-28T18:35:01.366Z,17.66
2016-02-28T18:50:01.218Z,17.54
2016-02-28T18:51:01.159Z,17.46
2016-02-28T18:52:01.130Z,17.47
2016-02-28T18:53:01.164Z,17.57
2016-02-28T18:54:01.088Z,17.55
2016-02-28T18:55:01.091Z,17.49
2016-02-28T18:56:01.093Z,17.52
2016-02-28T18:57:01.066Z,17.47
2016-02-28T18:58:01.084Z,17.43
2016-02-28T18:59:01.024Z,17.43
2016-02-28T19:00:01.042Z,17.45
2016-02-28T19:01:00.998Z,17.4
2016-02-28T19:02:01.001Z,17.47
2016-02-28T19:03:00.988Z,17.31
2016-02-28T19:04:00.865Z,17.32
2016-02-28T19:05:00.931Z,17.36
2016-02-28T19:20:48.896Z,17.18
2016-02-28T19:21:48.883Z,17.2
2016-02-28T19:22:48.855Z,17.15
2016-02-28T19:23:48.841Z,17.17
2016-02-28T19:24:48.827Z,17.21
2016-02-28T19:25:48.799Z,17.13
2016-02-28T19:26:48.802Z,17.03
2016-02-28T19:27:48.774Z,17.09
2016-02-28T19:28:48.760Z,17.09
2016-02-28T19:29:48.748Z,17.15
2016-02-28T19:30:48.751Z,17.12
2016-02-28T19:31:48.722Z,17.13
2016-02-28T19:32:48.724Z,17.12
2016-02-28T19:33:48.696Z,17.09
2016-02-28T19:34:48.683Z,17.12
2016-02-28T19:35:48.670Z,17.12
2016-02-28T19:51:18.352Z,17.03
2016-02-28T19:52:18.339Z,16.95
2016-02-28T19:53:18.325Z,17
2016-02-28T19:54:18.297Z,17.12
2016-02-28T19:55:18.315Z,17.15
2016-02-28T19:56:18.286Z,17.25
2016-02-28T19:57:18.258Z,17.18
2016-02-28T19:58:18.246Z,17.27
2016-02-28T19:59:18.232Z,17.18
2016-02-28T20:00:18.219Z,17.35
2016-02-28T20:01:18.207Z,17.38
2016-02-28T20:02:18.209Z,17.39
2016-02-28T20:03:18.180Z,17.36
2016-02-28T20:04:18.168Z,17.42
2016-02-28T20:05:18.185Z,17.35
2016-02-28T20:20:25.012Z,17.8
2016-02-28T20:21:25.014Z,17.83
2016-02-28T20:22:24.985Z,17.81
2016-02-28T20:23:24.973Z,17.79
2016-02-28T20:24:24.943Z,17.81
2016-02-28T20:25:24.946Z,17.81
2016-02-28T20:26:24.934Z,17.81
2016-02-28T20:27:24.906Z,17.76
2016-02-28T20:28:24.892Z,17.73
2016-02-28T20:29:24.879Z,17.8
2016-02-28T20:30:24.882Z,17.77
2016-02-28T20:31:24.853Z,17.87
2016-02-28T20:32:24.840Z,17.79
2016-02-28T20:33:24.827Z,17.84
2016-02-28T20:34:24.830Z,17.8
2016-02-28T20:52:24.928Z,17.68
2016-02-28T20:53:24.915Z,17.69
2016-02-28T20:54:24.901Z,17.69
2016-02-28T20:55:24.873Z,17.65
2016-02-28T20:56:24.860Z,17.68
2016-02-28T20:57:24.831Z,17.65
2016-02-28T20:58:24.834Z,17.62
2016-02-28T20:59:24.822Z,17.63
2016-02-28T21:00:24.808Z,17.68
2016-02-28T21:01:24.796Z,17.68
2016-02-28T21:02:24.783Z,17.71
2016-02-28T21:03:24.832Z,17.65
2016-02-28T21:04:24.772Z,17.66
2016-02-28T21:05:24.588Z,17.76
2016-02-28T21:21:45.756Z,17.69
2016-02-28T21:22:45.743Z,17.63
2016-02-28T21:23:45.715Z,17.65
2016-02-28T21:24:45.685Z,17.62
2016-02-28T21:25:45.672Z,17.65
2016-02-28T21:26:45.676Z,17.65
2016-02-28T21:27:45.678Z,17.62
2016-02-28T21:28:45.665Z,17.74
2016-02-28T21:29:45.636Z,17.66
2016-02-28T21:30:45.623Z,17.63
2016-02-28T21:31:45.610Z,17.68
2016-02-28T21:32:45.582Z,17.66
2016-02-28T21:33:45.569Z,17.6
2016-02-28T21:34:45.555Z,17.81
2016-02-28T21:35:45.559Z,17.74
2016-02-28T21:51:01.742Z,17.57
2016-02-28T21:52:01.714Z,17.52
2016-02-28T21:53:01.701Z,17.49
2016-02-28T21:54:01.704Z,17.54
2016-02-28T21:55:01.659Z,17.6
2016-02-28T21:56:01.678Z,17.55
2016-02-28T21:57:01.649Z,17.46
2016-02-28T21:58:01.652Z,17.46
2016-02-28T21:59:01.623Z,17.49
2016-02-28T22:00:01.595Z,17.5
2016-02-28T22:01:01.582Z,17.45
2016-02-28T22:02:01.569Z,17.42
2016-02-28T22:03:01.556Z,17.46
2016-02-28T22:04:01.825Z,17.43
2016-02-28T22:05:01.546Z,17.4
2016-02-28T22:21:51.277Z,16.92
2016-02-28T22:22:51.263Z,16.88
2016-02-28T22:23:51.235Z,16.82
2016-02-28T22:24:51.222Z,16.84
2016-02-28T22:25:51.209Z,16.77
2016-02-28T22:26:51.196Z,16.7
2016-02-28T22:27:51.199Z,16.62
2016-02-28T22:28:51.154Z,16.65
2016-02-28T22:29:51.142Z,16.57
2016-02-28T22:30:51.145Z,16.59
2016-02-28T22:31:51.116Z,16.65
2016-02-28T22:32:51.103Z,16.49
2016-02-28T22:33:51.090Z,16.49
2016-02-28T22:34:51.077Z,16.59
2016-02-28T22:49:56.261Z,16.14
2016-02-28T22:50:56.232Z,16.08
2016-02-28T22:51:56.219Z,16.18
2016-02-28T22:52:56.049Z,16.1
2016-02-28T22:53:56.178Z,16.02
2016-02-28T22:54:56.165Z,15.99
2016-02-28T22:55:56.152Z,15.98
2016-02-28T22:56:56.139Z,15.91
2016-02-28T22:57:56.126Z,15.89
2016-02-28T22:58:56.112Z,15.91
2016-02-28T22:59:56.084Z,15.86
2016-02-28T23:00:56.087Z,15.89
2016-02-28T23:01:56.074Z,15.92
2016-02-28T23:02:56.046Z,15.86
2016-02-28T23:03:56.033Z,15.93
2016-02-28T23:20:06.326Z,15.52
2016-02-28T23:21:06.297Z,15.43
2016-02-28T23:22:06.269Z,15.45
2016-02-28T23:23:06.271Z,15.44
2016-02-28T23:24:06.243Z,15.49
2016-02-28T23:25:06.246Z,15.45
2016-02-28T23:26:06.060Z,15.43
2016-02-28T23:27:06.187Z,15.45
2016-02-28T23:28:06.191Z,15.47
2016-02-28T23:29:06.162Z,15.43
2016-02-28T23:30:06.149Z,15.4
2016-02-28T23:31:06.121Z,15.41
2016-02-28T23:32:06.108Z,15.44
2016-02-28T23:33:05.939Z,15.38
2016-02-28T23:34:06.082Z,15.33
2016-02-28T23:50:19.282Z,15.19
2016-02-28T23:51:19.253Z,15.18
2016-02-28T23:52:19.255Z,15.08
2016-02-28T23:53:19.211Z,15.1
2016-02-28T23:54:19.214Z,15.19
2016-02-28T23:55:19.185Z,15.13
2016-02-28T23:56:19.173Z,15.13
2016-02-28T23:57:19.160Z,15.08
2016-02-28T23:58:19.131Z,15.13
2016-02-28T23:59:19.118Z,15.07
